Latest Weather Observations for Bankstown

IDN60801

Issued at 8:09 pm EDT Thursday 2 April 2015 (issued every 30 minutes, with the page automatically refreshed every 10 minutes)

About weather observations | Map of weather stations | Latest weather observations for NSW | Other Formats
Station Details ID: 066137 Name: BANKSTOWN AIRPORT AWS Lat: -33.92 Lon: 150.99 Height: 6.5 m
Data from the previous 72 hours. | See also: Recent months at Bankstown
Date/Time
EDT
Temp
°C
App
Temp
°C
Dew
Point
Rel
Hum
%
Delta-T
°C
Wind Press
QNH
hPa
Press
MSL
hPa
Rain
since 9 am
mm
Dir
 
Spd
km/h
Gust
km/h
Spd
kts
Gust
kts
02/08:00pm 22.0 19.8 14.9 64 4.2 NNW 20 37 11 20 1017.6 1017.6 0.0
02/07:30pm 24.0 22.2 14.4 55 5.7 WNW 17 22 9 12 1017.3 1017.3 0.0
02/07:00pm 25.7 26.8 18.1 63 4.8 NNE 9 11 5 6 1016.3 1016.3 0.0
02/06:30pm 25.2 27.9 18.6 67 4.2 NNE 2 6 1 3 1015.9 1015.9 0.0
02/06:00pm 27.0 27.8 16.3 52 6.6 NNE 7 9 4 5 1015.9 1015.9 0.0
02/05:30pm 28.2 28.2 14.1 42 8.4 N 7 11 4 6 1015.8 1015.8 0.0
02/05:00pm 28.6 28.1 13.7 40 8.9 NNE 9 11 5 6 1015.5 1015.5 0.0
02/04:30pm 28.6 28.2 12.9 38 9.2 NNE 7 13 4 7 1015.4 1015.4 0.0
02/04:00pm 28.9 28.3 13.6 39 9.1 NNE 9 13 5 7 1015.4 1015.4 0.0
02/03:30pm 29.2 28.9 13.4 38 9.4 NNW 7 13 4 7 1015.8 1015.8 0.0
02/03:00pm 28.6 28.1 13.7 40 8.9 NW 9 15 5 8 1016.0 1016.0 0.0
02/02:30pm 28.2 27.4 14.1 42 8.4 NNW 11 17 6 9 1016.3 1016.3 0.0
02/02:00pm 27.6 27.5 13.9 43 8.1 N 7 13 4 7 1016.6 1016.6 0.0
02/01:30pm 27.8 27.8 14.1 43 8.2 WNW 7 13 4 7 1016.8 1016.8 0.0
02/01:00pm 27.1 27.1 14.1 44 7.7 NW 7 15 4 8 1017.3 1017.3 0.0
02/12:30pm 26.3 26.9 15.7 52 6.5 NW 7 11 4 6 1017.8 1017.8 0.0
02/12:00pm 25.2 25.2 15.2 54 6.0 W 9 13 5 7 1018.1 1018.1 0.0
02/11:30am 24.9 25.4 16.6 60 5.1 W 9 13 5 7 1018.4 1018.4 0.0
02/11:00am 23.7 24.6 16.2 63 4.6 NW 6 9 3 5 1018.6 1018.6 0.0
02/10:30am 22.7 24.3 17.8 74 3.0 NW 6 9 3 5 1018.8 1018.8 0.0
02/10:00am 20.4 21.5 17.2 82 1.9 WNW 7 11 4 6 1018.8 1018.8 0.0
02/09:30am 19.5 20.9 17.3 87 1.3 W 6 9 3 5 1019.0 1019.0 0.0
02/09:00am 18.8 20.4 16.9 89 1.1 WNW 4 9 2 5 1019.0 1019.0 0.0
02/08:30am 18.4 19.0 16.7 90 1.0 NNW 9 11 5 6 1018.6 1018.6 0.0
02/08:00am 17.0 18.7 15.3 90 1.0 CALM 0 0 0 0 1018.3 1018.3 0.0
02/07:30am 16.9 18.7 15.4 91 0.9 CALM 0 0 0 0 1018.0 1018.0 0.0
02/07:00am 16.2 17.7 14.6 90 0.9 CALM 0 0 0 0 1018.0 1018.0 0.0
02/06:30am 16.2 17.7 14.6 90 0.9 CALM 0 0 0 0 1017.8 1017.8 0.0
02/06:00am 16.2 17.7 14.6 90 0.9 CALM 0 0 0 0 1017.6 1017.6 0.0
02/05:43am 16.1 17.5 14.3 89 1.0 CALM 0 0 0 0 1017.4 1017.4 0.0
02/05:30am 15.9 17.2 14.1 89 1.0 CALM 0 0 0 0 1017.4 1017.4 0.0
02/05:24am 15.8 17.1 14.0 89 1.0 CALM 0 0 0 0 1017.4 1017.4 0.0
02/05:08am 15.9 17.2 14.1 89 1.0 CALM 0 0 0 0 1017.5 1017.5 0.0
02/05:00am 15.7 16.9 13.9 89 1.0 CALM 0 0 0 0 1017.5 1017.5 0.0
02/04:36am 16.6 18.2 14.8 89 1.0 CALM 0 0 0 0 1017.5 1017.5 0.0
02/04:30am 16.5 18.0 14.7 89 1.0 CALM 0 0 0 0 1017.6 1017.6 0.0
02/04:00am 16.4 17.9 14.6 89 1.0 CALM 0 0 0 0 1017.6 1017.6 0.0
02/03:42am 17.1 18.8 15.3 89 1.0 CALM 0 0 0 0 1017.7 1017.7 0.0
02/03:30am 16.8 18.4 15.0 89 1.0 CALM 0 0 0 0 1018.0 1018.0 0.0
02/03:19am 16.7 18.2 14.7 88 1.2 CALM 0 0 0 0 1018.1 1018.1 0.0
02/03:00am 16.9 18.5 14.9 88 1.2 CALM 0 0 0 0 1018.1 1018.1 0.0
02/02:30am 16.9 18.4 14.7 87 1.3 CALM 0 0 0 0 1018.6 1018.6 0.0
02/02:00am 17.9 19.9 15.9 88 1.2 CALM 0 0 0 0 1018.9 1018.9 0.0
02/01:30am 17.5 19.2 15.1 86 1.4 CALM 0 0 0 0 1019.3 1019.3 0.0
02/01:00am 18.4 20.4 16.0 86 1.4 CALM 0 0 0 0 1019.4 1019.4 0.0
02/12:30am 18.3 20.3 15.9 86 1.4 CALM 0 0 0 0 1019.9 1019.9 0.0
02/12:00am 18.7 20.7 15.9 84 1.7 CALM 0 0 0 0 1020.0 1020.0 0.0
 
Date/Time
EDT
Temp
°C
App
Temp
°C
Dew
Point
Rel
Hum
%
Delta-T
°C
Wind Press
QNH
hPa
Press
MSL
hPa
Rain
since 9 am
mm
Dir
 
Spd
km/h
Gust
km/h
Spd
kts
Gust
kts
01/11:30pm 19.2 21.3 16.2 83 1.8 CALM 0 0 0 0 1020.2 1020.2 0.0
01/11:00pm 19.2 21.2 15.9 81 2.0 CALM 0 0 0 0 1020.3 1020.3 0.0
01/10:30pm 19.9 22.1 16.5 81 2.0 CALM 0 0 0 0 1020.5 1020.5 0.0
01/10:00pm 19.7 21.4 15.1 75 2.7 CALM 0 0 0 0 1020.5 1020.5 0.0
01/09:30pm 21.6 22.6 16.8 74 2.9 NNE 7 9 4 5 1020.3 1020.3 0.0
01/09:00pm 21.7 23.2 16.6 73 3.1 NNE 4 7 2 4 1020.2 1020.2 0.0
01/08:30pm 22.1 22.7 16.8 72 3.2 NE 9 13 5 7 1020.1 1020.1 0.0
01/08:00pm 22.5 22.3 16.8 70 3.5 NE 13 19 7 10 1019.8 1019.8 0.0
01/07:30pm 22.9 22.2 16.4 67 4.0 NE 15 24 8 13 1019.6 1019.6 0.0
01/07:00pm 23.4 22.9 16.0 63 4.5 NE 13 19 7 10 1019.6 1019.6 0.0
01/06:30pm 24.0 23.5 16.0 61 4.9 NE 13 19 7 10 1019.5 1019.5 0.0
01/06:00pm 24.5 24.1 16.2 60 5.1 NE 13 17 7 9 1019.5 1019.5 0.0
01/05:30pm 24.5 24.3 16.7 61 4.8 NE 13 20 7 11 1019.7 1019.7 0.0
01/05:00pm 25.1 24.7 16.3 58 5.4 NNE 13 19 7 10 1019.5 1019.5 0.0
01/04:30pm 25.1 24.7 16.3 58 5.4 NE 13 22 7 12 1019.5 1019.5 0.0
01/04:00pm 25.7 25.0 16.3 56 5.8 ENE 15 20 8 11 1019.7 1019.7 0.0
01/03:30pm 25.3 24.0 14.7 51 6.3 NE 15 20 8 11 1020.0 1020.0 0.0
01/03:00pm 25.3 24.7 15.6 55 5.9 NNE 13 19 7 10 1020.6 1020.6 0.0
01/02:30pm 24.5 25.1 15.4 57 5.5 NNE 6 11 3 6 1021.1 1021.1 0.0
01/02:00pm 24.6 24.2 16.1 59 5.2 NNW 13 20 7 11 1021.7 1021.7 0.0
01/01:30pm 23.9 23.1 15.1 58 5.3 NNW 13 22 7 12 1022.2 1022.2 0.0
01/01:00pm 24.6 24.4 15.8 58 5.3 NW 11 22 6 12 1022.8 1022.8 0.0
01/12:30pm 24.9 25.5 17.6 64 4.6 NW 11 17 6 9 1023.6 1023.6 0.0
01/12:00pm 23.4 23.3 16.9 67 4.0 NNW 13 22 7 12 1024.1 1024.1 0.0
01/11:30am 22.6 23.0 16.4 68 3.8 NNW 9 15 5 8 1024.4 1024.4 0.0
01/11:10am 22.4 22.1 16.4 69 3.6 NNW 13 19 7 10 1024.6 1024.6 0.0
01/11:00am 22.4 22.7 16.9 71 3.4 NW 11 17 6 9 1024.6 1024.6 0.0
01/10:36am 21.4 22.3 16.6 74 2.9 NW 7 11 4 6 1024.8 1024.8 0.0
01/10:30am 21.5 22.5 16.9 75 2.8 WNW 7 11 4 6 1024.9 1024.9 0.0
01/10:00am 20.6 21.8 16.8 79 2.3 N 6 9 3 5 1025.1 1025.1 0.0
01/09:30am 19.5 21.0 17.5 88 1.2 WNW 6 7 3 4 1025.3 1025.3 0.0
01/09:00am 18.4 19.9 16.7 90 1.0 WNW 4 6 2 3 1025.2 1025.2 9.4
01/08:37am 17.4 18.2 15.9 91 0.9 WNW 6 7 3 4 1025.0 1025.0 9.4
01/08:30am 17.4 18.0 15.9 91 0.9 WNW 7 9 4 5 1025.0 1025.0 9.4
01/08:05am 17.2 18.7 15.7 91 0.9 NNW 2 7 1 4 1024.7 1024.7 9.4
01/08:00am 17.1 18.9 15.6 91 0.9 CALM 0 0 0 0 1024.6 1024.6 9.4
01/07:58am 17.1 18.9 15.6 91 0.9 CALM 0 0 0 0 1024.6 1024.6 9.4
01/07:30am 16.4 18.0 14.9 91 0.9 CALM 0 0 0 0 1024.5 1024.5 9.4
01/07:28am 16.4 18.0 14.9 91 0.9 CALM 0 0 0 0 1024.4 1024.4 9.4
01/07:00am 16.6 18.3 15.1 91 0.9 CALM 0 0 0 0 1024.3 1024.3 9.4
01/06:30am 16.8 18.5 15.3 91 0.9 CALM 0 0 0 0 1024.3 1024.3 9.4
01/06:00am 16.5 17.7 15.0 91 0.9 WSW 2 7 1 4 1024.1 1024.1 9.4
01/05:34am 16.0 17.4 14.4 90 0.9 CALM 0 0 0 0 1024.0 1024.0 9.4
01/05:30am 16.0 17.4 14.4 90 0.9 CALM 0 0 0 0 1024.0 1024.0 9.4
01/05:01am 15.8 17.1 14.2 90 0.9 CALM 0 0 0 0 1023.8 1023.8 9.4
01/05:00am 16.0 17.4 14.4 90 0.9 CALM 0 0 0 0 1023.8 1023.8 9.4
01/04:52am 16.0 17.4 14.4 90 0.9 CALM 0 0 0 0 1023.9 1023.9 9.4
01/04:40am 16.3 17.8 14.7 90 0.9 CALM 0 0 0 0 1023.9 1023.9 9.4
01/04:38am 16.4 18.0 14.8 90 0.9 CALM 0 0 0 0 1024.0 1024.0 9.4
01/04:30am 16.4 17.2 14.8 90 0.9 WSW 4 6 2 3 1024.0 1024.0 9.4
01/04:25am 16.4 16.8 14.8 90 0.9 WSW 6 7 3 4 1024.0 1024.0 9.4
01/04:00am 16.9 17.3 15.2 90 1.0 WSW 7 7 4 4 1024.2 1024.2 9.4
01/03:30am 16.9 18.6 15.2 90 1.0 CALM 0 0 0 0 1024.3 1024.3 9.4
01/03:00am 16.9 18.2 15.2 90 1.0 WNW 2 7 1 4 1024.6 1024.6 9.4
01/02:52am 16.8 17.2 15.2 90 0.9 WNW 7 9 4 5 1024.6 1024.6 9.4
01/02:39am 16.8 16.4 15.2 90 0.9 N 11 17 6 9 1024.8 1024.8 9.2
01/02:30am 16.5 17.7 14.9 90 0.9 ENE 2 11 1 6 1025.0 1025.0 8.6
01/02:00am 16.1 16.7 14.3 89 1.0 ENE 4 6 2 3 1024.8 1024.8 8.6
01/01:30am 15.8 15.9 14.0 89 1.0 ENE 6 7 3 4 1025.3 1025.3 8.6
01/01:00am 16.1 17.5 14.3 89 1.0 CALM 0 2 0 1 1025.4 1025.4 8.6
01/12:30am 16.2 17.5 14.2 88 1.1 CALM 0 0 0 0 1025.6 1025.6 8.6
01/12:00am 16.6 18.1 14.6 88 1.1 CALM 0 0 0 0 1025.7 1025.7 8.6
 
Date/Time
EDT
Temp
°C
App
Temp
°C
Dew
Point
Rel
Hum
%
Delta-T
°C
Wind Press
QNH
hPa
Press
MSL
hPa
Rain
since 9 am
mm
Dir
 
Spd
km/h
Gust
km/h
Spd
kts
Gust
kts
31/11:30pm 16.3 17.7 14.3 88 1.1 CALM 0 0 0 0 1025.8 1025.8 8.6
31/11:00pm 17.2 18.9 15.2 88 1.2 CALM 0 0 0 0 1026.1 1026.1 8.6
31/10:30pm 17.4 19.0 15.0 86 1.4 CALM 0 0 0 0 1026.3 1026.3 8.6
31/10:00pm 17.6 19.3 15.2 86 1.4 CALM 0 0 0 0 1026.3 1026.3 8.6
31/09:30pm 17.6 19.3 15.2 86 1.4 CALM 0 0 0 0 1026.2 1026.2 8.6
31/09:00pm 17.1 18.4 14.0 82 1.8 CALM 0 0 0 0 1026.1 1026.1 8.6
31/08:30pm 18.6 20.0 14.5 77 2.4 CALM 0 0 0 0 1025.9 1025.9 8.6
31/08:00pm 19.8 20.2 15.4 76 2.6 E 7 7 4 4 1025.5 1025.5 8.6
31/07:30pm 20.0 20.0 15.2 74 2.8 ESE 9 11 5 6 1025.2 1025.2 8.6
31/07:00pm 20.7 19.8 14.8 69 3.4 ESE 13 17 7 9 1025.0 1025.0 8.6
31/06:30pm 21.5 19.4 13.7 61 4.5 E 17 20 9 11 1025.1 1025.1 8.6
31/06:00pm 22.3 19.7 13.1 56 5.3 ESE 19 24 10 13 1024.8 1024.8 8.6
31/05:30pm 22.5 20.0 13.6 57 5.2 ESE 19 20 10 11 1024.6 1024.6 8.6
31/05:00pm 22.0 20.5 15.4 66 3.9 SE 17 20 9 11 1024.6 1024.6 8.6
31/04:30pm 22.3 20.8 15.4 65 4.1 SE 17 22 9 12 1024.6 1024.6 8.6
31/04:00pm 21.4 20.1 15.9 71 3.3 SE 17 20 9 11 1024.7 1024.7 8.6
31/03:30pm 21.7 20.8 16.9 74 2.9 SE 17 20 9 11 1024.9 1024.9 8.6
31/03:04pm 21.5 22.9 17.3 77 2.6 WSW 6 9 3 5 1024.9 1024.9 8.6
31/03:00pm 21.2 22.3 17.0 77 2.6 SW 7 17 4 9 1025.0 1025.0 8.6
31/02:30pm 20.8 21.9 17.2 80 2.2 S 7 9 4 5 1025.4 1025.4 8.6
31/02:15pm 21.3 23.8 18.1 82 2.0 SSE 2 9 1 5 1025.4 1025.4 8.6
31/02:11pm 21.6 24.4 18.8 84 1.8 WSW 2 9 1 5 1025.4 1025.4 8.6
31/02:00pm 20.3 22.5 17.5 84 1.7 WSW 2 6 1 3 1025.6 1025.6 8.6
31/01:45pm 19.8 21.3 17.6 87 1.3 SSW 6 9 3 5 1025.8 1025.8 8.6
31/01:32pm 19.7 21.1 17.7 88 1.2 SSE 7 9 4 5 1025.9 1025.9 8.6
31/01:30pm 19.5 20.8 17.5 88 1.2 SSE 7 9 4 5 1025.9 1025.9 8.6
31/01:00pm 18.8 19.7 16.6 87 1.3 SE 7 11 4 6 1026.4 1026.4 7.2
31/12:30pm 18.6 18.1 16.0 85 1.5 ENE 13 19 7 10 1026.7 1026.7 3.8
31/12:23pm 19.0 18.4 16.6 86 1.4 NE 15 24 8 13 1026.8 1026.8 2.6
31/12:00pm 19.4 19.5 16.6 84 1.7 N 11 15 6 8 1026.5 1026.5 0.6
31/11:30am 19.3 18.9 16.3 83 1.8 N 13 17 7 9 1027.0 1027.0 0.2
31/11:00am 19.8 19.8 16.3 80 2.1 NW 11 13 6 7 1027.0 1027.0 0.2
31/10:30am 20.1 20.6 16.5 80 2.2 W 9 11 5 6 1027.0 1027.0 0.2
31/10:00am 19.4 20.3 16.2 82 1.9 WSW 6 9 3 5 1027.0 1027.0 0.2
31/09:30am 18.8 19.5 15.7 82 1.8 WSW 6 9 3 5 1026.9 1026.9 0.2
31/09:00am 18.4 19.0 15.3 82 1.8 SW 6 9 3 5 1026.4 1026.4 0.2
31/08:30am 18.3 18.9 15.4 83 1.7 SSW 6 9 3 5 1026.1 1026.1 0.2
31/08:00am 18.5 20.3 15.6 83 1.7 CALM 0 0 0 0 1025.8 1025.8 0.2
31/07:30am 17.5 19.2 15.1 86 1.4 CALM 0 0 0 0 1025.5 1025.5 0.2
31/07:00am 17.7 19.4 15.1 85 1.5 CALM 0 0 0 0 1025.2 1025.2 0.2
31/06:30am 17.5 19.1 15.0 85 1.5 CALM 0 0 0 0 1024.9 1024.9 0.2
31/06:00am 17.4 19.0 14.9 85 1.4 CALM 0 0 0 0 1024.6 1024.6 0.2
31/05:30am 17.5 18.0 15.0 85 1.5 SSW 6 7 3 4 1024.4 1024.4 0.2
31/05:00am 17.7 18.9 15.0 84 1.6 SSW 2 6 1 3 1024.4 1024.4 0.2
31/04:30am 17.9 19.3 15.3 85 1.5 SW 2 7 1 4 1024.4 1024.4 0.2
31/04:00am 18.2 20.0 15.5 84 1.6 CALM 0 0 0 0 1024.8 1024.8 0.2
31/03:30am 18.2 18.7 15.5 84 1.6 SW 7 9 4 5 1024.9 1024.9 0.2
31/03:08am 18.4 18.2 15.6 84 1.6 WSW 11 13 6 7 1025.0 1025.0 0.2
31/03:00am 18.5 18.8 15.9 85 1.5 WSW 9 13 5 7 1025.0 1025.0 0.2
31/02:49am 18.6 18.9 16.0 85 1.5 WSW 9 13 5 7 1025.1 1025.1 0.2
31/02:30am 18.9 20.3 16.5 86 1.4 ENE 4 7 2 4 1025.2 1025.2 0.2
31/02:00am 19.0 21.2 16.4 85 1.5 CALM 0 0 0 0 1025.4 1025.4 0.2
31/01:30am 19.2 21.4 16.4 84 1.7 CALM 0 0 0 0 1025.5 1025.5 0.2
31/01:00am 19.0 19.9 16.0 83 1.8 ENE 6 7 3 4 1025.4 1025.4 0.2
31/12:30am 19.5 20.7 16.0 80 2.1 ENE 4 6 2 3 1025.4 1025.4 0.2
31/12:00am 20.4 19.9 16.0 76 2.6 ENE 13 19 7 10 1025.4 1025.4 0.0
 
Date/Time
EDT
Temp
°C
App
Temp
°C
Dew
Point
Rel
Hum
%
Delta-T
°C
Wind Press
QNH
hPa
Press
MSL
hPa
Rain
since 9 am
mm
Dir
 
Spd
km/h
Gust
km/h
Spd
kts
Gust
kts
30/11:30pm 19.0 19.3 14.9 77 2.4 SSE 7 9 4 5 1025.4 1025.4 0.0
30/11:00pm 19.4 19.9 14.9 75 2.6 SSE 6 7 3 4 1025.4 1025.4 0.0
30/10:30pm 19.6 19.9 15.0 75 2.7 S 7 9 4 5 1025.2 1025.2 0.0
30/10:00pm 20.6 21.2 15.2 71 3.2 SE 6 7 3 4 1025.1 1025.1 0.0
30/09:30pm 21.0 21.0 15.3 70 3.4 ESE 9 13 5 7 1025.3 1025.3 0.0
30/09:00pm 21.2 20.5 15.5 70 3.4 SE 13 15 7 8 1025.1 1025.1 0.0
30/08:30pm 21.5 22.8 15.1 67 3.8 NE 2 6 1 3 1025.0 1025.0 0.0

Other Formats:

Comma delimited format used in spreadsheet applications
http://www.bom.gov.au/fwo/IDN60801/IDN60801.94765.axf

JavaScript Object Notation format (JSON) in row-major order
http://www.bom.gov.au/fwo/IDN60801/IDN60801.94765.json